sensor_id;sensor_type;location;lat;lon;timestamp;temperature;humidity
16313;DHT22;8265;52.622;13.296;2023-08-07T00:02:05;12.80;94.60
16313;DHT22;8265;52.622;13.296;2023-08-07T00:07:26;12.70;95.50
16313;DHT22;8265;52.622;13.296;2023-08-07T00:12:47;12.80;94.80
16313;DHT22;8265;52.622;13.296;2023-08-07T00:18:08;12.90;94.60
16313;DHT22;8265;52.622;13.296;2023-08-07T00:23:29;13.10;94.20
16313;DHT22;8265;52.622;13.296;2023-08-07T00:28:50;13.10;93.80
16313;DHT22;8265;52.622;13.296;2023-08-07T00:34:11;13.10;94.10
16313;DHT22;8265;52.622;13.296;2023-08-07T00:39:32;13.10;93.60
16313;DHT22;8265;52.622;13.296;2023-08-07T00:44:53;13.10;92.60
16313;DHT22;8265;52.622;13.296;2023-08-07T00:50:14;13.20;92.80
16313;DHT22;8265;52.622;13.296;2023-08-07T00:55:35;13.20;92.70
16313;DHT22;8265;52.622;13.296;2023-08-07T01:00:56;13.10;92.50
16313;DHT22;8265;52.622;13.296;2023-08-07T01:06:17;13.20;92.50
16313;DHT22;8265;52.622;13.296;2023-08-07T01:12:19;13.30;92.70
16313;DHT22;8265;52.622;13.296;2023-08-07T01:22:20;13.30;92.00
16313;DHT22;8265;52.622;13.296;2023-08-07T01:27:54;13.20;92.10
16313;DHT22;8265;52.622;13.296;2023-08-07T01:38:24;13.10;92.40
16313;DHT22;8265;52.622;13.296;2023-08-07T01:43:44;13.00;92.60
16313;DHT22;8265;52.622;13.296;2023-08-07T01:49:05;13.00;92.70
16313;DHT22;8265;52.622;13.296;2023-08-07T01:54:26;12.90;93.30
16313;DHT22;8265;52.622;13.296;2023-08-07T01:59:47;12.90;93.70
16313;DHT22;8265;52.622;13.296;2023-08-07T02:05:08;12.90;93.80
16313;DHT22;8265;52.622;13.296;2023-08-07T02:10:29;12.90;93.80
16313;DHT22;8265;52.622;13.296;2023-08-07T02:15:50;12.90;93.60
16313;DHT22;8265;52.622;13.296;2023-08-07T02:21:11;12.90;93.80
16313;DHT22;8265;52.622;13.296;2023-08-07T02:26:32;12.90;94.00
16313;DHT22;8265;52.622;13.296;2023-08-07T02:31:53;13.00;94.10
16313;DHT22;8265;52.622;13.296;2023-08-07T02:37:14;13.10;94.50
16313;DHT22;8265;52.622;13.296;2023-08-07T02:42:35;13.10;94.40
16313;DHT22;8265;52.622;13.296;2023-08-07T02:47:56;13.10;94.90
16313;DHT22;8265;52.622;13.296;2023-08-07T02:53:17;13.10;95.10
16313;DHT22;8265;52.622;13.296;2023-08-07T02:58:38;13.20;95.40
16313;DHT22;8265;52.622;13.296;2023-08-07T03:03:59;13.30;95.60
16313;DHT22;8265;52.622;13.296;2023-08-07T03:09:20;13.40;95.50
16313;DHT22;8265;52.622;13.296;2023-08-07T03:14:41;13.50;95.50
16313;DHT22;8265;52.622;13.296;2023-08-07T03:20:02;13.50;95.50
16313;DHT22;8265;52.622;13.296;2023-08-07T03:25:23;13.50;95.60
16313;DHT22;8265;52.622;13.296;2023-08-07T03:30:44;13.50;95.70
16313;DHT22;8265;52.622;13.296;2023-08-07T03:36:05;13.50;95.70
16313;DHT22;8265;52.622;13.296;2023-08-07T03:41:26;13.60;95.20
16313;DHT22;8265;52.622;13.296;2023-08-07T03:46:47;13.60;95.30
16313;DHT22;8265;52.622;13.296;2023-08-07T03:52:08;13.70;94.80
16313;DHT22;8265;52.622;13.296;2023-08-07T03:57:29;13.60;94.80
16313;DHT22;8265;52.622;13.296;2023-08-07T04:02:50;13.70;94.40
16313;DHT22;8265;52.622;13.296;2023-08-07T04:08:11;13.70;93.70
16313;DHT22;8265;52.622;13.296;2023-08-07T04:13:32;13.70;93.50
16313;DHT22;8265;52.622;13.296;2023-08-07T04:18:53;13.70;93.60
16313;DHT22;8265;52.622;13.296;2023-08-07T04:24:14;13.80;93.30
16313;DHT22;8265;52.622;13.296;2023-08-07T04:29:35;13.80;93.30
16313;DHT22;8265;52.622;13.296;2023-08-07T04:34:55;13.80;92.90
16313;DHT22;8265;52.622;13.296;2023-08-07T04:40:16;13.90;92.60
16313;DHT22;8265;52.622;13.296;2023-08-07T04:45:37;13.90;92.40
16313;DHT22;8265;52.622;13.296;2023-08-07T04:50:58;13.90;92.30
16313;DHT22;8265;52.622;13.296;2023-08-07T04:56:19;13.90;91.80
16313;DHT22;8265;52.622;13.296;2023-08-07T05:01:40;14.00;91.40
16313;DHT22;8265;52.622;13.296;2023-08-07T05:07:01;14.00;91.00
16313;DHT22;8265;52.622;13.296;2023-08-07T05:12:22;14.00;90.60
16313;DHT22;8265;52.622;13.296;2023-08-07T05:17:43;14.00;90.60
16313;DHT22;8265;52.622;13.296;2023-08-07T05:23:04;14.00;90.30
16313;DHT22;8265;52.622;13.296;2023-08-07T05:28:25;14.00;90.20
16313;DHT22;8265;52.622;13.296;2023-08-07T05:33:46;14.00;90.20
16313;DHT22;8265;52.622;13.296;2023-08-07T05:39:07;14.00;89.30
16313;DHT22;8265;52.622;13.296;2023-08-07T05:44:28;14.10;89.10
16313;DHT22;8265;52.622;13.296;2023-08-07T05:49:49;14.10;88.80
16313;DHT22;8265;52.622;13.296;2023-08-07T05:55:10;14.20;87.70
16313;DHT22;8265;52.622;13.296;2023-08-07T06:00:31;14.40;87.60
16313;DHT22;8265;52.622;13.296;2023-08-07T06:05:52;14.50;86.60
16313;DHT22;8265;52.622;13.296;2023-08-07T06:11:13;14.70;86.90
16313;DHT22;8265;52.622;13.296;2023-08-07T06:16:34;14.90;85.10
16313;DHT22;8265;52.622;13.296;2023-08-07T06:21:55;15.00;84.00
16313;DHT22;8265;52.622;13.296;2023-08-07T06:27:16;15.10;83.90
16313;DHT22;8265;52.622;13.296;2023-08-07T06:32:37;15.20;83.10
16313;DHT22;8265;52.622;13.296;2023-08-07T06:37:58;15.30;82.50
16313;DHT22;8265;52.622;13.296;2023-08-07T06:43:19;15.30;82.00
16313;DHT22;8265;52.622;13.296;2023-08-07T06:48:40;15.30;82.10
16313;DHT22;8265;52.622;13.296;2023-08-07T06:54:01;15.40;80.80
16313;DHT22;8265;52.622;13.296;2023-08-07T06:59:22;15.60;80.60
16313;DHT22;8265;52.622;13.296;2023-08-07T07:04:43;15.70;79.50
16313;DHT22;8265;52.622;13.296;2023-08-07T07:10:04;15.80;78.60
16313;DHT22;8265;52.622;13.296;2023-08-07T07:15:25;15.90;78.80
16313;DHT22;8265;52.622;13.296;2023-08-07T07:20:46;16.00;77.70
16313;DHT22;8265;52.622;13.296;2023-08-07T07:26:07;16.10;76.40
16313;DHT22;8265;52.622;13.296;2023-08-07T07:31:28;16.20;75.90
16313;DHT22;8265;52.622;13.296;2023-08-07T07:36:49;16.40;75.10
16313;DHT22;8265;52.622;13.296;2023-08-07T07:42:10;16.60;74.20
16313;DHT22;8265;52.622;13.296;2023-08-07T07:47:31;16.80;73.30
16313;DHT22;8265;52.622;13.296;2023-08-07T07:52:52;16.80;74.10
16313;DHT22;8265;52.622;13.296;2023-08-07T07:58:13;17.00;73.50
16313;DHT22;8265;52.622;13.296;2023-08-07T08:03:34;17.10;73.20
16313;DHT22;8265;52.622;13.296;2023-08-07T08:08:55;17.00;72.60
16313;DHT22;8265;52.622;13.296;2023-08-07T08:14:16;17.00;72.30
16313;DHT22;8265;52.622;13.296;2023-08-07T08:19:37;17.10;72.70
16313;DHT22;8265;52.622;13.296;2023-08-07T08:24:58;17.20;72.20
16313;DHT22;8265;52.622;13.296;2023-08-07T08:30:19;17.20;71.90
16313;DHT22;8265;52.622;13.296;2023-08-07T08:35:40;17.20;72.90
16313;DHT22;8265;52.622;13.296;2023-08-07T08:41:01;17.40;72.60
16313;DHT22;8265;52.622;13.296;2023-08-07T08:46:22;17.60;72.40
16313;DHT22;8265;52.622;13.296;2023-08-07T08:51:43;17.80;71.40
16313;DHT22;8265;52.622;13.296;2023-08-07T08:57:04;18.00;70.30
16313;DHT22;8265;52.622;13.296;2023-08-07T09:02:25;18.00;70.10
16313;DHT22;8265;52.622;13.296;2023-08-07T09:07:49;18.20;69.20
16313;DHT22;8265;52.622;13.296;2023-08-07T09:13:09;18.50;67.20
16313;DHT22;8265;52.622;13.296;2023-08-07T09:18:28;18.60;68.50
16313;DHT22;8265;52.622;13.296;2023-08-07T09:23:49;18.30;67.40
16313;DHT22;8265;52.622;13.296;2023-08-07T09:29:10;18.20;69.10
16313;DHT22;8265;52.622;13.296;2023-08-07T09:34:31;18.20;68.90
16313;DHT22;8265;52.622;13.296;2023-08-07T09:39:52;18.10;68.70
16313;DHT22;8265;52.622;13.296;2023-08-07T09:45:23;18.00;69.20
16313;DHT22;8265;52.622;13.296;2023-08-07T09:50:34;18.20;69.00
16313;DHT22;8265;52.622;13.296;2023-08-07T09:55:55;18.20;68.80
16313;DHT22;8265;52.622;13.296;2023-08-07T10:01:16;18.30;68.90
16313;DHT22;8265;52.622;13.296;2023-08-07T10:06:37;18.00;69.90
16313;DHT22;8265;52.622;13.296;2023-08-07T10:11:58;18.00;69.90
16313;DHT22;8265;52.622;13.296;2023-08-07T10:17:19;18.20;68.60
16313;DHT22;8265;52.622;13.296;2023-08-07T10:22:40;18.40;67.70
16313;DHT22;8265;52.622;13.296;2023-08-07T10:28:01;18.40;66.60
16313;DHT22;8265;52.622;13.296;2023-08-07T10:33:22;18.70;65.20
16313;DHT22;8265;52.622;13.296;2023-08-07T10:38:43;18.60;65.00
16313;DHT22;8265;52.622;13.296;2023-08-07T10:44:04;19.10;66.00
16313;DHT22;8265;52.622;13.296;2023-08-07T10:49:31;19.40;65.20
16313;DHT22;8265;52.622;13.296;2023-08-07T10:54:48;18.50;65.70
16313;DHT22;8265;52.622;13.296;2023-08-07T11:00:07;17.50;70.80
16313;DHT22;8265;52.622;13.296;2023-08-07T11:05:28;18.00;69.00
16313;DHT22;8265;52.622;13.296;2023-08-07T11:10:52;18.50;67.60
16313;DHT22;8265;52.622;13.296;2023-08-07T11:16:10;18.30;66.80
16313;DHT22;8265;52.622;13.296;2023-08-07T11:21:31;18.40;67.00
16313;DHT22;8265;52.622;13.296;2023-08-07T11:26:52;18.60;67.30
16313;DHT22;8265;52.622;13.296;2023-08-07T11:32:13;18.30;69.20
16313;DHT22;8265;52.622;13.296;2023-08-07T11:37:34;18.20;69.60
16313;DHT22;8265;52.622;13.296;2023-08-07T11:42:55;18.00;69.90
16313;DHT22;8265;52.622;13.296;2023-08-07T11:48:15;18.20;70.30
16313;DHT22;8265;52.622;13.296;2023-08-07T11:53:37;18.60;68.10
16313;DHT22;8265;52.622;13.296;2023-08-07T11:58:58;18.80;68.90
16313;DHT22;8265;52.622;13.296;2023-08-07T12:04:19;19.10;67.30
16313;DHT22;8265;52.622;13.296;2023-08-07T12:09:39;19.50;67.10
16313;DHT22;8265;52.622;13.296;2023-08-07T12:15:01;19.30;65.30
16313;DHT22;8265;52.622;13.296;2023-08-07T12:20:22;19.40;65.70
16313;DHT22;8265;52.622;13.296;2023-08-07T12:25:43;19.50;64.80
16313;DHT22;8265;52.622;13.296;2023-08-07T12:31:03;19.30;64.20
16313;DHT22;8265;52.622;13.296;2023-08-07T12:36:24;19.50;63.90
16313;DHT22;8265;52.622;13.296;2023-08-07T12:41:46;20.00;63.80
16313;DHT22;8265;52.622;13.296;2023-08-07T12:47:06;20.10;62.00
16313;DHT22;8265;52.622;13.296;2023-08-07T12:52:27;19.30;59.40
16313;DHT22;8265;52.622;13.296;2023-08-07T12:57:48;19.60;59.50
16313;DHT22;8265;52.622;13.296;2023-08-07T13:03:09;19.70;59.10
16313;DHT22;8265;52.622;13.296;2023-08-07T13:08:30;20.00;58.20
16313;DHT22;8265;52.622;13.296;2023-08-07T13:13:51;20.10;57.80
16313;DHT22;8265;52.622;13.296;2023-08-07T13:19:12;20.30;56.70
16313;DHT22;8265;52.622;13.296;2023-08-07T13:24:33;20.30;55.20
16313;DHT22;8265;52.622;13.296;2023-08-07T13:29:54;20.30;53.60
16313;DHT22;8265;52.622;13.296;2023-08-07T13:35:15;20.80;50.80
16313;DHT22;8265;52.622;13.296;2023-08-07T13:40:36;20.30;51.90
16313;DHT22;8265;52.622;13.296;2023-08-07T13:45:57;20.50;52.20
16313;DHT22;8265;52.622;13.296;2023-08-07T13:51:19;21.10;50.00
16313;DHT22;8265;52.622;13.296;2023-08-07T13:56:39;20.30;52.40
16313;DHT22;8265;52.622;13.296;2023-08-07T14:02:00;19.80;52.70
16313;DHT22;8265;52.622;13.296;2023-08-07T14:07:21;19.90;53.90
16313;DHT22;8265;52.622;13.296;2023-08-07T14:12:42;20.30;52.10
16313;DHT22;8265;52.622;13.296;2023-08-07T14:18:03;20.00;51.80
16313;DHT22;8265;52.622;13.296;2023-08-07T14:23:24;20.00;51.70
16313;DHT22;8265;52.622;13.296;2023-08-07T14:28:45;20.20;53.20
16313;DHT22;8265;52.622;13.296;2023-08-07T14:34:06;20.20;51.30
16313;DHT22;8265;52.622;13.296;2023-08-07T14:39:27;20.50;52.20
16313;DHT22;8265;52.622;13.296;2023-08-07T14:44:48;20.60;51.40
16313;DHT22;8265;52.622;13.296;2023-08-07T14:50:09;19.90;52.10
16313;DHT22;8265;52.622;13.296;2023-08-07T14:55:31;19.30;52.40
16313;DHT22;8265;52.622;13.296;2023-08-07T15:00:54;18.90;53.10
16313;DHT22;8265;52.622;13.296;2023-08-07T15:06:12;18.60;55.20
16313;DHT22;8265;52.622;13.296;2023-08-07T15:11:33;18.90;55.70
16313;DHT22;8265;52.622;13.296;2023-08-07T15:16:54;19.90;51.30
16313;DHT22;8265;52.622;13.296;2023-08-07T15:22:15;19.50;51.40
16313;DHT22;8265;52.622;13.296;2023-08-07T15:27:36;19.50;51.40
16313;DHT22;8265;52.622;13.296;2023-08-07T15:32:57;20.10;50.10
16313;DHT22;8265;52.622;13.296;2023-08-07T15:38:18;19.70;51.00
16313;DHT22;8265;52.622;13.296;2023-08-07T15:43:39;19.20;52.00
16313;DHT22;8265;52.622;13.296;2023-08-07T15:49:00;19.40;51.80
16313;DHT22;8265;52.622;13.296;2023-08-07T15:54:21;19.50;52.20
16313;DHT22;8265;52.622;13.296;2023-08-07T15:59:42;19.40;52.20
16313;DHT22;8265;52.622;13.296;2023-08-07T16:05:03;19.40;51.90
16313;DHT22;8265;52.622;13.296;2023-08-07T16:10:24;20.30;49.60
16313;DHT22;8265;52.622;13.296;2023-08-07T16:15:45;19.30;52.20
16313;DHT22;8265;52.622;13.296;2023-08-07T16:21:06;18.70;54.20
16313;DHT22;8265;52.622;13.296;2023-08-07T16:26:27;18.60;54.70
16313;DHT22;8265;52.622;13.296;2023-08-07T16:31:48;18.40;55.70
16313;DHT22;8265;52.622;13.296;2023-08-07T16:37:09;18.20;55.80
16313;DHT22;8265;52.622;13.296;2023-08-07T16:42:30;18.00;56.50
16313;DHT22;8265;52.622;13.296;2023-08-07T16:47:51;17.80;56.70
16313;DHT22;8265;52.622;13.296;2023-08-07T16:53:12;18.10;56.00
16313;DHT22;8265;52.622;13.296;2023-08-07T16:58:33;18.10;55.80
16313;DHT22;8265;52.622;13.296;2023-08-07T17:03:54;18.70;54.10
16313;DHT22;8265;52.622;13.296;2023-08-07T17:09:16;18.30;55.10
16313;DHT22;8265;52.622;13.296;2023-08-07T17:14:36;18.00;56.00
16313;DHT22;8265;52.622;13.296;2023-08-07T17:19:57;17.80;56.60
16313;DHT22;8265;52.622;13.296;2023-08-07T17:25:18;17.60;56.60
16313;DHT22;8265;52.622;13.296;2023-08-07T17:30:39;18.00;55.20
16313;DHT22;8265;52.622;13.296;2023-08-07T17:36:00;18.40;54.40
16313;DHT22;8265;52.622;13.296;2023-08-07T17:41:21;18.30;54.00
16313;DHT22;8265;52.622;13.296;2023-08-07T17:46:42;18.70;52.50
16313;DHT22;8265;52.622;13.296;2023-08-07T17:52:04;18.10;53.20
16313;DHT22;8265;52.622;13.296;2023-08-07T17:57:24;17.40;54.70
16313;DHT22;8265;52.622;13.296;2023-08-07T18:02:45;17.00;55.30
16313;DHT22;8265;52.622;13.296;2023-08-07T18:08:06;16.80;56.60
16313;DHT22;8265;52.622;13.296;2023-08-07T18:13:27;16.60;57.50
16313;DHT22;8265;52.622;13.296;2023-08-07T18:18:48;16.30;58.70
16313;DHT22;8265;52.622;13.296;2023-08-07T18:24:09;16.10;59.40
16313;DHT22;8265;52.622;13.296;2023-08-07T18:29:30;16.00;60.40
16313;DHT22;8265;52.622;13.296;2023-08-07T18:34:51;15.80;61.10
16313;DHT22;8265;52.622;13.296;2023-08-07T18:40:12;15.80;62.00
16313;DHT22;8265;52.622;13.296;2023-08-07T18:45:33;15.80;61.90
16313;DHT22;8265;52.622;13.296;2023-08-07T18:50:54;15.80;62.20
16313;DHT22;8265;52.622;13.296;2023-08-07T18:56:15;15.70;61.30
16313;DHT22;8265;52.622;13.296;2023-08-07T19:01:36;15.80;60.60
16313;DHT22;8265;52.622;13.296;2023-08-07T19:06:57;15.60;60.40
16313;DHT22;8265;52.622;13.296;2023-08-07T19:12:18;15.60;59.80
16313;DHT22;8265;52.622;13.296;2023-08-07T19:17:39;15.60;59.60
16313;DHT22;8265;52.622;13.296;2023-08-07T19:23:00;15.50;59.70
16313;DHT22;8265;52.622;13.296;2023-08-07T19:28:21;15.50;59.60
16313;DHT22;8265;52.622;13.296;2023-08-07T19:33:42;15.20;60.40
16313;DHT22;8265;52.622;13.296;2023-08-07T19:39:03;15.00;61.30
16313;DHT22;8265;52.622;13.296;2023-08-07T19:44:24;14.80;62.40
16313;DHT22;8265;52.622;13.296;2023-08-07T19:49:45;14.80;63.20
16313;DHT22;8265;52.622;13.296;2023-08-07T19:55:06;14.70;64.00
16313;DHT22;8265;52.622;13.296;2023-08-07T20:00:27;14.50;65.20
16313;DHT22;8265;52.622;13.296;2023-08-07T20:05:48;14.30;66.70
16313;DHT22;8265;52.622;13.296;2023-08-07T20:11:09;14.40;67.40
16313;DHT22;8265;52.622;13.296;2023-08-07T20:16:30;14.50;68.00
16313;DHT22;8265;52.622;13.296;2023-08-07T20:21:51;14.50;68.60
16313;DHT22;8265;52.622;13.296;2023-08-07T20:27:12;14.50;68.80
16313;DHT22;8265;52.622;13.296;2023-08-07T20:32:33;14.50;68.10
16313;DHT22;8265;52.622;13.296;2023-08-07T20:37:54;14.50;68.30
16313;DHT22;8265;52.622;13.296;2023-08-07T20:43:15;14.40;68.00
16313;DHT22;8265;52.622;13.296;2023-08-07T20:48:36;14.40;68.30
16313;DHT22;8265;52.622;13.296;2023-08-07T20:53:57;14.30;68.20
16313;DHT22;8265;52.622;13.296;2023-08-07T20:59:18;14.40;68.00
16313;DHT22;8265;52.622;13.296;2023-08-07T21:04:39;14.40;67.30
16313;DHT22;8265;52.622;13.296;2023-08-07T21:10:00;14.30;67.40
16313;DHT22;8265;52.622;13.296;2023-08-07T21:15:21;14.30;67.50
16313;DHT22;8265;52.622;13.296;2023-08-07T21:20:42;14.30;66.80
16313;DHT22;8265;52.622;13.296;2023-08-07T21:26:03;14.40;66.40
16313;DHT22;8265;52.622;13.296;2023-08-07T21:31:24;14.30;66.60
16313;DHT22;8265;52.622;13.296;2023-08-07T21:36:45;14.10;67.40
16313;DHT22;8265;52.622;13.296;2023-08-07T21:42:06;14.10;67.70
16313;DHT22;8265;52.622;13.296;2023-08-07T21:47:27;14.10;67.90
16313;DHT22;8265;52.622;13.296;2023-08-07T21:52:48;14.00;68.60
16313;DHT22;8265;52.622;13.296;2023-08-07T21:58:09;13.90;69.30
16313;DHT22;8265;52.622;13.296;2023-08-07T22:03:30;13.90;69.30
16313;DHT22;8265;52.622;13.296;2023-08-07T22:08:51;14.00;69.10
16313;DHT22;8265;52.622;13.296;2023-08-07T22:14:12;13.90;69.70
16313;DHT22;8265;52.622;13.296;2023-08-07T22:19:33;13.90;70.70
16313;DHT22;8265;52.622;13.296;2023-08-07T22:24:54;13.70;71.40
16313;DHT22;8265;52.622;13.296;2023-08-07T22:30:15;13.70;71.40
16313;DHT22;8265;52.622;13.296;2023-08-07T22:35:36;13.70;71.40
16313;DHT22;8265;52.622;13.296;2023-08-07T22:40:57;13.70;71.30
16313;DHT22;8265;52.622;13.296;2023-08-07T22:46:18;13.70;71.60
16313;DHT22;8265;52.622;13.296;2023-08-07T22:51:39;13.60;72.20
16313;DHT22;8265;52.622;13.296;2023-08-07T22:57:00;13.50;73.20
16313;DHT22;8265;52.622;13.296;2023-08-07T23:02:21;13.50;73.90
16313;DHT22;8265;52.622;13.296;2023-08-07T23:07:42;13.50;73.60
16313;DHT22;8265;52.622;13.296;2023-08-07T23:13:03;13.60;73.50
16313;DHT22;8265;52.622;13.296;2023-08-07T23:18:24;13.50;73.20
16313;DHT22;8265;52.622;13.296;2023-08-07T23:23:45;13.40;73.30
16313;DHT22;8265;52.622;13.296;2023-08-07T23:29:06;13.50;72.90
16313;DHT22;8265;52.622;13.296;2023-08-07T23:34:27;13.50;72.10
16313;DHT22;8265;52.622;13.296;2023-08-07T23:39:48;13.60;71.40
16313;DHT22;8265;52.622;13.296;2023-08-07T23:45:09;13.60;70.60
16313;DHT22;8265;52.622;13.296;2023-08-07T23:50:30;13.60;70.50
16313;DHT22;8265;52.622;13.296;2023-08-07T23:55:50;13.50;70.00
